sensor_id;sensor_type;location;lat;lon;timestamp;P1;durP1;ratioP1;P2;durP2;ratioP2
70683;SDS011;58263;48.146;11.440;2024-03-02T00:00:05;7.07;;;5.53;;
70683;SDS011;58263;48.146;11.440;2024-03-02T00:02:42;8.82;;;6.25;;
70683;SDS011;58263;48.146;11.440;2024-03-02T00:05:13;8.00;;;5.68;;
70683;SDS011;58263;48.146;11.440;2024-03-02T00:07:43;8.15;;;6.25;;
70683;SDS011;58263;48.146;11.440;2024-03-02T00:10:11;7.90;;;6.15;;
70683;SDS011;58263;48.146;11.440;2024-03-02T00:12:39;8.25;;;6.38;;
70683;SDS011;58263;48.146;11.440;2024-03-02T00:15:06;8.02;;;5.72;;
70683;SDS011;58263;48.146;11.440;2024-03-02T00:17:51;8.38;;;6.00;;
70683;SDS011;58263;48.146;11.440;2024-03-02T00:20:18;8.30;;;5.63;;
70683;SDS011;58263;48.146;11.440;2024-03-02T00:22:47;7.35;;;4.78;;
70683;SDS011;58263;48.146;11.440;2024-03-02T00:25:12;7.97;;;5.40;;
70683;SDS011;58263;48.146;11.440;2024-03-02T00:27:37;10.00;;;5.80;;
70683;SDS011;58263;48.146;11.440;2024-03-02T00:30:06;6.70;;;5.23;;
70683;SDS011;58263;48.146;11.440;2024-03-02T00:33:01;7.70;;;5.38;;
70683;SDS011;58263;48.146;11.440;2024-03-02T00:35:26;6.63;;;4.90;;
70683;SDS011;58263;48.146;11.440;2024-03-02T00:37:52;10.57;;;5.53;;
70683;SDS011;58263;48.146;11.440;2024-03-02T00:40:17;6.77;;;5.27;;
70683;SDS011;58263;48.146;11.440;2024-03-02T00:42:44;8.40;;;6.03;;
70683;SDS011;58263;48.146;11.440;2024-03-02T00:45:09;7.15;;;5.00;;
70683;SDS011;58263;48.146;11.440;2024-03-02T00:47:38;9.27;;;5.80;;
70683;SDS011;58263;48.146;11.440;2024-03-02T00:50:04;9.25;;;5.93;;
70683;SDS011;58263;48.146;11.440;2024-03-02T00:52:30;8.88;;;6.13;;
70683;SDS011;58263;48.146;11.440;2024-03-02T00:54:58;6.70;;;5.18;;
70683;SDS011;58263;48.146;11.440;2024-03-02T00:57:23;9.57;;;6.53;;
70683;SDS011;58263;48.146;11.440;2024-03-02T00:59:50;8.63;;;5.88;;
70683;SDS011;58263;48.146;11.440;2024-03-02T01:02:16;10.90;;;6.00;;
70683;SDS011;58263;48.146;11.440;2024-03-02T01:04:41;8.37;;;5.63;;
70683;SDS011;58263;48.146;11.440;2024-03-02T01:07:06;9.23;;;6.27;;
70683;SDS011;58263;48.146;11.440;2024-03-02T01:09:31;8.67;;;5.97;;
70683;SDS011;58263;48.146;11.440;2024-03-02T01:11:57;8.70;;;5.83;;
70683;SDS011;58263;48.146;11.440;2024-03-02T01:14:22;8.60;;;5.68;;
70683;SDS011;58263;48.146;11.440;2024-03-02T01:16:48;7.27;;;4.97;;
70683;SDS011;58263;48.146;11.440;2024-03-02T01:19:14;9.02;;;5.80;;
70683;SDS011;58263;48.146;11.440;2024-03-02T01:21:39;8.35;;;5.65;;
70683;SDS011;58263;48.146;11.440;2024-03-02T01:24:05;8.07;;;5.90;;
70683;SDS011;58263;48.146;11.440;2024-03-02T01:26:30;8.77;;;6.13;;
70683;SDS011;58263;48.146;11.440;2024-03-02T01:28:55;8.55;;;5.88;;
70683;SDS011;58263;48.146;11.440;2024-03-02T01:31:21;7.53;;;5.53;;
70683;SDS011;58263;48.146;11.440;2024-03-02T01:33:46;9.43;;;6.63;;
70683;SDS011;58263;48.146;11.440;2024-03-02T01:36:11;10.47;;;6.30;;
70683;SDS011;58263;48.146;11.440;2024-03-02T01:38:36;7.50;;;5.80;;
70683;SDS011;58263;48.146;11.440;2024-03-02T01:41:02;8.73;;;6.33;;
70683;SDS011;58263;48.146;11.440;2024-03-02T01:43:27;9.38;;;5.25;;
70683;SDS011;58263;48.146;11.440;2024-03-02T01:45:53;9.90;;;6.40;;
70683;SDS011;58263;48.146;11.440;2024-03-02T01:48:18;8.27;;;5.88;;
70683;SDS011;58263;48.146;11.440;2024-03-02T01:50:44;7.05;;;5.18;;
70683;SDS011;58263;48.146;11.440;2024-03-02T01:53:09;9.43;;;5.83;;
70683;SDS011;58263;48.146;11.440;2024-03-02T01:55:35;8.32;;;5.88;;
70683;SDS011;58263;48.146;11.440;2024-03-02T01:58:00;9.47;;;6.70;;
70683;SDS011;58263;48.146;11.440;2024-03-02T02:00:26;11.88;;;6.30;;
70683;SDS011;58263;48.146;11.440;2024-03-02T02:02:51;8.43;;;6.43;;
70683;SDS011;58263;48.146;11.440;2024-03-02T02:05:17;8.05;;;6.00;;
70683;SDS011;58263;48.146;11.440;2024-03-02T02:07:42;8.00;;;6.18;;
70683;SDS011;58263;48.146;11.440;2024-03-02T02:10:08;9.68;;;6.78;;
70683;SDS011;58263;48.146;11.440;2024-03-02T02:12:35;9.20;;;6.63;;
70683;SDS011;58263;48.146;11.440;2024-03-02T02:15:01;9.45;;;6.60;;
70683;SDS011;58263;48.146;11.440;2024-03-02T02:17:27;8.30;;;6.30;;
70683;SDS011;58263;48.146;11.440;2024-03-02T02:19:52;9.53;;;6.03;;
70683;SDS011;58263;48.146;11.440;2024-03-02T02:22:17;9.87;;;6.43;;
70683;SDS011;58263;48.146;11.440;2024-03-02T02:24:43;10.97;;;6.47;;
70683;SDS011;58263;48.146;11.440;2024-03-02T02:27:08;10.00;;;7.35;;
70683;SDS011;58263;48.146;11.440;2024-03-02T02:29:35;8.60;;;6.35;;
70683;SDS011;58263;48.146;11.440;2024-03-02T02:32:00;12.15;;;7.00;;
70683;SDS011;58263;48.146;11.440;2024-03-02T02:34:26;9.20;;;6.28;;
70683;SDS011;58263;48.146;11.440;2024-03-02T02:36:51;8.50;;;6.07;;
70683;SDS011;58263;48.146;11.440;2024-03-02T02:39:17;8.60;;;5.78;;
70683;SDS011;58263;48.146;11.440;2024-03-02T02:41:45;9.18;;;6.20;;
70683;SDS011;58263;48.146;11.440;2024-03-02T02:44:10;9.63;;;6.33;;
70683;SDS011;58263;48.146;11.440;2024-03-02T02:46:37;8.32;;;6.20;;
70683;SDS011;58263;48.146;11.440;2024-03-02T02:49:03;7.40;;;5.45;;
70683;SDS011;58263;48.146;11.440;2024-03-02T02:51:28;9.03;;;6.10;;
70683;SDS011;58263;48.146;11.440;2024-03-02T02:53:54;8.97;;;5.50;;
70683;SDS011;58263;48.146;11.440;2024-03-02T02:56:19;7.93;;;5.57;;
70683;SDS011;58263;48.146;11.440;2024-03-02T02:58:44;9.30;;;5.83;;
70683;SDS011;58263;48.146;11.440;2024-03-02T03:01:09;10.03;;;5.83;;
70683;SDS011;58263;48.146;11.440;2024-03-02T03:03:35;9.38;;;5.97;;
70683;SDS011;58263;48.146;11.440;2024-03-02T03:06:01;8.47;;;5.70;;
70683;SDS011;58263;48.146;11.440;2024-03-02T03:08:27;8.85;;;6.68;;
70683;SDS011;58263;48.146;11.440;2024-03-02T03:10:52;8.80;;;6.03;;
70683;SDS011;58263;48.146;11.440;2024-03-02T03:13:17;8.93;;;6.07;;
70683;SDS011;58263;48.146;11.440;2024-03-02T03:15:43;9.47;;;5.90;;
70683;SDS011;58263;48.146;11.440;2024-03-02T03:18:08;9.07;;;5.97;;
70683;SDS011;58263;48.146;11.440;2024-03-02T03:20:35;12.10;;;5.93;;
70683;SDS011;58263;48.146;11.440;2024-03-02T03:23:00;8.77;;;6.00;;
70683;SDS011;58263;48.146;11.440;2024-03-02T03:25:25;8.13;;;5.07;;
70683;SDS011;58263;48.146;11.440;2024-03-02T03:27:51;9.23;;;6.17;;
70683;SDS011;58263;48.146;11.440;2024-03-02T03:30:19;10.15;;;6.03;;
70683;SDS011;58263;48.146;11.440;2024-03-02T03:32:44;10.68;;;6.45;;
70683;SDS011;58263;48.146;11.440;2024-03-02T03:35:10;11.23;;;7.38;;
70683;SDS011;58263;48.146;11.440;2024-03-02T03:37:35;9.53;;;6.40;;
70683;SDS011;58263;48.146;11.440;2024-03-02T03:40:01;12.50;;;6.47;;
70683;SDS011;58263;48.146;11.440;2024-03-02T03:42:27;8.10;;;6.15;;
70683;SDS011;58263;48.146;11.440;2024-03-02T03:44:53;9.95;;;6.70;;
70683;SDS011;58263;48.146;11.440;2024-03-02T03:47:18;9.97;;;6.87;;
70683;SDS011;58263;48.146;11.440;2024-03-02T03:49:45;8.45;;;6.00;;
70683;SDS011;58263;48.146;11.440;2024-03-02T03:52:10;10.07;;;6.27;;
70683;SDS011;58263;48.146;11.440;2024-03-02T03:54:35;11.30;;;6.50;;
70683;SDS011;58263;48.146;11.440;2024-03-02T03:57:02;10.73;;;6.80;;
70683;SDS011;58263;48.146;11.440;2024-03-02T03:59:27;10.50;;;7.32;;
70683;SDS011;58263;48.146;11.440;2024-03-02T04:01:52;12.40;;;7.23;;
70683;SDS011;58263;48.146;11.440;2024-03-02T04:04:18;12.30;;;6.43;;
70683;SDS011;58263;48.146;11.440;2024-03-02T04:06:43;9.03;;;6.93;;
70683;SDS011;58263;48.146;11.440;2024-03-02T04:09:09;11.63;;;7.25;;
70683;SDS011;58263;48.146;11.440;2024-03-02T04:11:34;10.73;;;6.33;;
70683;SDS011;58263;48.146;11.440;2024-03-02T04:13:59;12.13;;;7.40;;
70683;SDS011;58263;48.146;11.440;2024-03-02T04:16:25;10.90;;;6.70;;
70683;SDS011;58263;48.146;11.440;2024-03-02T04:18:50;10.33;;;6.30;;
70683;SDS011;58263;48.146;11.440;2024-03-02T04:21:15;11.50;;;7.53;;
70683;SDS011;58263;48.146;11.440;2024-03-02T04:23:40;10.83;;;7.57;;
70683;SDS011;58263;48.146;11.440;2024-03-02T04:26:06;10.40;;;7.17;;
70683;SDS011;58263;48.146;11.440;2024-03-02T04:28:31;11.17;;;7.63;;
70683;SDS011;58263;48.146;11.440;2024-03-02T04:30:56;10.50;;;7.10;;
70683;SDS011;58263;48.146;11.440;2024-03-02T04:33:21;14.20;;;7.77;;
70683;SDS011;58263;48.146;11.440;2024-03-02T04:35:47;10.83;;;7.30;;
70683;SDS011;58263;48.146;11.440;2024-03-02T04:38:12;10.37;;;7.10;;
70683;SDS011;58263;48.146;11.440;2024-03-02T04:40:37;12.37;;;7.40;;
70683;SDS011;58263;48.146;11.440;2024-03-02T04:43:02;11.63;;;7.37;;
70683;SDS011;58263;48.146;11.440;2024-03-02T04:45:28;9.45;;;6.90;;
70683;SDS011;58263;48.146;11.440;2024-03-02T04:47:53;12.07;;;7.13;;
70683;SDS011;58263;48.146;11.440;2024-03-02T04:50:19;12.03;;;6.77;;
70683;SDS011;58263;48.146;11.440;2024-03-02T04:52:44;9.90;;;6.50;;
70683;SDS011;58263;48.146;11.440;2024-03-02T04:55:09;10.23;;;7.03;;
70683;SDS011;58263;48.146;11.440;2024-03-02T04:57:41;11.45;;;7.25;;
70683;SDS011;58263;48.146;11.440;2024-03-02T05:00:07;9.00;;;6.60;;
70683;SDS011;58263;48.146;11.440;2024-03-02T05:02:33;11.43;;;7.97;;
70683;SDS011;58263;48.146;11.440;2024-03-02T05:04:59;12.95;;;7.80;;
70683;SDS011;58263;48.146;11.440;2024-03-02T05:07:24;10.20;;;7.07;;
70683;SDS011;58263;48.146;11.440;2024-03-02T05:09:49;11.67;;;7.30;;
70683;SDS011;58263;48.146;11.440;2024-03-02T05:12:15;17.17;;;8.05;;
70683;SDS011;58263;48.146;11.440;2024-03-02T05:14:58;11.45;;;7.22;;
70683;SDS011;58263;48.146;11.440;2024-03-02T05:17:24;10.00;;;6.90;;
70683;SDS011;58263;48.146;11.440;2024-03-02T05:19:49;11.77;;;7.23;;
70683;SDS011;58263;48.146;11.440;2024-03-02T05:22:14;13.63;;;7.33;;
70683;SDS011;58263;48.146;11.440;2024-03-02T05:24:39;11.40;;;7.23;;
70683;SDS011;58263;48.146;11.440;2024-03-02T05:27:05;11.80;;;7.50;;
70683;SDS011;58263;48.146;11.440;2024-03-02T05:29:31;11.70;;;7.68;;
70683;SDS011;58263;48.146;11.440;2024-03-02T05:31:56;10.70;;;6.95;;
70683;SDS011;58263;48.146;11.440;2024-03-02T05:34:22;14.83;;;8.93;;
70683;SDS011;58263;48.146;11.440;2024-03-02T05:36:47;13.37;;;7.33;;
70683;SDS011;58263;48.146;11.440;2024-03-02T05:39:12;14.53;;;8.83;;
70683;SDS011;58263;48.146;11.440;2024-03-02T05:41:37;12.93;;;6.90;;
70683;SDS011;58263;48.146;11.440;2024-03-02T05:44:03;13.63;;;9.10;;
70683;SDS011;58263;48.146;11.440;2024-03-02T05:46:29;12.95;;;8.23;;
70683;SDS011;58263;48.146;11.440;2024-03-02T05:48:54;16.00;;;8.20;;
70683;SDS011;58263;48.146;11.440;2024-03-02T05:51:19;13.37;;;8.03;;
70683;SDS011;58263;48.146;11.440;2024-03-02T05:53:44;12.57;;;7.80;;
70683;SDS011;58263;48.146;11.440;2024-03-02T05:56:10;12.83;;;8.47;;
70683;SDS011;58263;48.146;11.440;2024-03-02T05:58:35;10.87;;;7.37;;
70683;SDS011;58263;48.146;11.440;2024-03-02T06:01:19;11.23;;;7.38;;
70683;SDS011;58263;48.146;11.440;2024-03-02T06:03:44;12.50;;;7.50;;
70683;SDS011;58263;48.146;11.440;2024-03-02T06:06:09;22.65;;;10.63;;
70683;SDS011;58263;48.146;11.440;2024-03-02T06:08:35;16.42;;;9.02;;
70683;SDS011;58263;48.146;11.440;2024-03-02T06:11:01;13.80;;;8.55;;
70683;SDS011;58263;48.146;11.440;2024-03-02T06:13:26;13.07;;;7.90;;
70683;SDS011;58263;48.146;11.440;2024-03-02T06:15:51;13.43;;;7.97;;
70683;SDS011;58263;48.146;11.440;2024-03-02T06:18:17;12.93;;;6.97;;
70683;SDS011;58263;48.146;11.440;2024-03-02T06:20:42;13.20;;;8.17;;
70683;SDS011;58263;48.146;11.440;2024-03-02T06:23:07;12.03;;;7.53;;
70683;SDS011;58263;48.146;11.440;2024-03-02T06:25:33;14.43;;;8.20;;
70683;SDS011;58263;48.146;11.440;2024-03-02T06:27:58;13.90;;;7.65;;
70683;SDS011;58263;48.146;11.440;2024-03-02T06:30:24;12.25;;;8.35;;
70683;SDS011;58263;48.146;11.440;2024-03-02T06:32:49;11.33;;;7.87;;
70683;SDS011;58263;48.146;11.440;2024-03-02T06:35:14;11.55;;;7.72;;
70683;SDS011;58263;48.146;11.440;2024-03-02T06:37:40;12.23;;;7.97;;
70683;SDS011;58263;48.146;11.440;2024-03-02T06:40:06;12.65;;;7.15;;
70683;SDS011;58263;48.146;11.440;2024-03-02T06:42:32;11.02;;;7.50;;
70683;SDS011;58263;48.146;11.440;2024-03-02T06:44:58;11.82;;;7.68;;
70683;SDS011;58263;48.146;11.440;2024-03-02T06:47:24;12.43;;;7.38;;
70683;SDS011;58263;48.146;11.440;2024-03-02T06:49:49;12.53;;;7.60;;
70683;SDS011;58263;48.146;11.440;2024-03-02T06:52:14;11.30;;;7.73;;
70683;SDS011;58263;48.146;11.440;2024-03-02T06:54:39;12.07;;;7.33;;
70683;SDS011;58263;48.146;11.440;2024-03-02T06:57:05;11.23;;;7.43;;
70683;SDS011;58263;48.146;11.440;2024-03-02T06:59:30;13.97;;;7.73;;
70683;SDS011;58263;48.146;11.440;2024-03-02T07:01:55;12.97;;;7.63;;
70683;SDS011;58263;48.146;11.440;2024-03-02T07:04:21;12.82;;;8.48;;
70683;SDS011;58263;48.146;11.440;2024-03-02T07:06:47;15.00;;;8.37;;
70683;SDS011;58263;48.146;11.440;2024-03-02T07:09:12;12.27;;;8.33;;
70683;SDS011;58263;48.146;11.440;2024-03-02T07:11:37;12.60;;;7.40;;
70683;SDS011;58263;48.146;11.440;2024-03-02T07:14:02;14.40;;;9.03;;
70683;SDS011;58263;48.146;11.440;2024-03-02T07:16:28;14.38;;;8.23;;
70683;SDS011;58263;48.146;11.440;2024-03-02T07:18:55;16.17;;;8.65;;
70683;SDS011;58263;48.146;11.440;2024-03-02T07:21:21;12.23;;;8.63;;
70683;SDS011;58263;48.146;11.440;2024-03-02T07:23:48;16.63;;;9.75;;
70683;SDS011;58263;48.146;11.440;2024-03-02T07:26:13;12.25;;;8.55;;
70683;SDS011;58263;48.146;11.440;2024-03-02T07:28:40;14.82;;;9.38;;
70683;SDS011;58263;48.146;11.440;2024-03-02T07:31:06;16.17;;;9.57;;
70683;SDS011;58263;48.146;11.440;2024-03-02T07:33:31;15.32;;;9.55;;
70683;SDS011;58263;48.146;11.440;2024-03-02T07:35:57;14.43;;;8.70;;
70683;SDS011;58263;48.146;11.440;2024-03-02T07:38:24;16.35;;;10.68;;
70683;SDS011;58263;48.146;11.440;2024-03-02T07:40:50;18.23;;;10.23;;
70683;SDS011;58263;48.146;11.440;2024-03-02T07:43:16;18.13;;;10.45;;
70683;SDS011;58263;48.146;11.440;2024-03-02T07:45:42;15.00;;;9.25;;
70683;SDS011;58263;48.146;11.440;2024-03-02T07:48:07;18.23;;;11.10;;
70683;SDS011;58263;48.146;11.440;2024-03-02T07:50:32;24.07;;;12.93;;
70683;SDS011;58263;48.146;11.440;2024-03-02T07:53:00;17.63;;;9.82;;
70683;SDS011;58263;48.146;11.440;2024-03-02T07:55:25;19.02;;;10.52;;
70683;SDS011;58263;48.146;11.440;2024-03-02T07:57:50;14.83;;;9.00;;
70683;SDS011;58263;48.146;11.440;2024-03-02T08:00:16;17.67;;;9.90;;
70683;SDS011;58263;48.146;11.440;2024-03-02T08:02:41;16.27;;;9.93;;
70683;SDS011;58263;48.146;11.440;2024-03-02T08:05:07;15.88;;;10.02;;
70683;SDS011;58263;48.146;11.440;2024-03-02T08:07:33;15.82;;;9.10;;
70683;SDS011;58263;48.146;11.440;2024-03-02T08:09:58;13.70;;;9.03;;
70683;SDS011;58263;48.146;11.440;2024-03-02T08:12:23;14.23;;;9.37;;
70683;SDS011;58263;48.146;11.440;2024-03-02T08:14:48;14.27;;;9.33;;
70683;SDS011;58263;48.146;11.440;2024-03-02T08:17:14;15.35;;;8.20;;
70683;SDS011;58263;48.146;11.440;2024-03-02T08:19:39;12.48;;;7.70;;
70683;SDS011;58263;48.146;11.440;2024-03-02T08:22:04;13.27;;;7.82;;
70683;SDS011;58263;48.146;11.440;2024-03-02T08:24:30;14.15;;;8.18;;
70683;SDS011;58263;48.146;11.440;2024-03-02T08:26:55;13.23;;;8.43;;
70683;SDS011;58263;48.146;11.440;2024-03-02T08:29:20;12.13;;;7.37;;
70683;SDS011;58263;48.146;11.440;2024-03-02T08:31:46;13.87;;;8.33;;
70683;SDS011;58263;48.146;11.440;2024-03-02T08:34:11;12.88;;;7.80;;
70683;SDS011;58263;48.146;11.440;2024-03-02T08:36:36;10.93;;;7.10;;
70683;SDS011;58263;48.146;11.440;2024-03-02T08:39:03;13.70;;;7.82;;
70683;SDS011;58263;48.146;11.440;2024-03-02T08:41:28;10.80;;;6.85;;
70683;SDS011;58263;48.146;11.440;2024-03-02T08:43:53;10.67;;;7.47;;
70683;SDS011;58263;48.146;11.440;2024-03-02T08:46:19;11.38;;;7.38;;
70683;SDS011;58263;48.146;11.440;2024-03-02T08:48:44;11.30;;;7.70;;
70683;SDS011;58263;48.146;11.440;2024-03-02T08:51:10;10.67;;;7.40;;
70683;SDS011;58263;48.146;11.440;2024-03-02T08:53:35;11.48;;;7.22;;
70683;SDS011;58263;48.146;11.440;2024-03-02T08:56:01;12.00;;;7.47;;
70683;SDS011;58263;48.146;11.440;2024-03-02T08:58:26;12.05;;;7.55;;
70683;SDS011;58263;48.146;11.440;2024-03-02T09:00:52;11.23;;;7.00;;
70683;SDS011;58263;48.146;11.440;2024-03-02T09:03:17;13.60;;;7.73;;
70683;SDS011;58263;48.146;11.440;2024-03-02T09:05:42;11.20;;;7.32;;
70683;SDS011;58263;48.146;11.440;2024-03-02T09:08:08;11.40;;;7.43;;
70683;SDS011;58263;48.146;11.440;2024-03-02T09:10:33;11.32;;;7.10;;
70683;SDS011;58263;48.146;11.440;2024-03-02T09:12:58;12.45;;;7.57;;
70683;SDS011;58263;48.146;11.440;2024-03-02T09:15:24;12.85;;;8.02;;
70683;SDS011;58263;48.146;11.440;2024-03-02T09:17:49;11.83;;;8.33;;
70683;SDS011;58263;48.146;11.440;2024-03-02T09:20:14;11.47;;;6.63;;
70683;SDS011;58263;48.146;11.440;2024-03-02T09:22:41;11.65;;;7.03;;
70683;SDS011;58263;48.146;11.440;2024-03-02T09:25:06;10.40;;;7.07;;
70683;SDS011;58263;48.146;11.440;2024-03-02T09:27:35;11.85;;;7.68;;
70683;SDS011;58263;48.146;11.440;2024-03-02T09:30:01;12.00;;;7.63;;
70683;SDS011;58263;48.146;11.440;2024-03-02T09:32:26;11.27;;;8.40;;
70683;SDS011;58263;48.146;11.440;2024-03-02T09:34:52;10.87;;;7.53;;
70683;SDS011;58263;48.146;11.440;2024-03-02T09:37:18;13.27;;;7.85;;
70683;SDS011;58263;48.146;11.440;2024-03-02T09:39:43;11.20;;;7.10;;
70683;SDS011;58263;48.146;11.440;2024-03-02T09:42:10;11.15;;;7.57;;
70683;SDS011;58263;48.146;11.440;2024-03-02T09:44:35;11.65;;;7.07;;
70683;SDS011;58263;48.146;11.440;2024-03-02T09:47:00;10.47;;;7.80;;
70683;SDS011;58263;48.146;11.440;2024-03-02T09:49:26;12.27;;;7.37;;
70683;SDS011;58263;48.146;11.440;2024-03-02T09:51:51;10.50;;;7.82;;
70683;SDS011;58263;48.146;11.440;2024-03-02T09:54:17;10.80;;;7.55;;
70683;SDS011;58263;48.146;11.440;2024-03-02T09:56:42;10.82;;;7.68;;
70683;SDS011;58263;48.146;11.440;2024-03-02T09:59:09;9.82;;;7.85;;
70683;SDS011;58263;48.146;11.440;2024-03-02T10:01:34;10.93;;;8.93;;
70683;SDS011;58263;48.146;11.440;2024-03-02T10:04:00;10.73;;;8.15;;
70683;SDS011;58263;48.146;11.440;2024-03-02T10:06:26;9.27;;;6.38;;
70683;SDS011;58263;48.146;11.440;2024-03-02T10:08:52;10.90;;;6.88;;
70683;SDS011;58263;48.146;11.440;2024-03-02T10:11:26;9.68;;;6.97;;
70683;SDS011;58263;48.146;11.440;2024-03-02T10:16:35;12.27;;;7.00;;
70683;SDS011;58263;48.146;11.440;2024-03-02T10:19:15;7.20;;;3.75;;
70683;SDS011;58263;48.146;11.440;2024-03-02T10:21:45;3.40;;;2.88;;
70683;SDS011;58263;48.146;11.440;2024-03-02T10:24:11;4.30;;;3.10;;
70683;SDS011;58263;48.146;11.440;2024-03-02T10:26:37;5.85;;;3.65;;
70683;SDS011;58263;48.146;11.440;2024-03-02T10:29:03;6.25;;;3.53;;
70683;SDS011;58263;48.146;11.440;2024-03-02T10:31:28;4.93;;;3.20;;
70683;SDS011;58263;48.146;11.440;2024-03-02T10:33:59;5.40;;;3.80;;
70683;SDS011;58263;48.146;11.440;2024-03-02T10:36:25;7.47;;;4.60;;
70683;SDS011;58263;48.146;11.440;2024-03-02T10:38:51;6.35;;;3.67;;
70683;SDS011;58263;48.146;11.440;2024-03-02T10:41:20;5.68;;;3.58;;
70683;SDS011;58263;48.146;11.440;2024-03-02T10:43:48;5.63;;;4.40;;
70683;SDS011;58263;48.146;11.440;2024-03-02T10:46:18;5.47;;;3.67;;
70683;SDS011;58263;48.146;11.440;2024-03-02T10:48:44;5.10;;;3.58;;
70683;SDS011;58263;48.146;11.440;2024-03-02T10:51:11;6.07;;;4.60;;
70683;SDS011;58263;48.146;11.440;2024-03-02T10:53:36;4.97;;;3.90;;
70683;SDS011;58263;48.146;11.440;2024-03-02T10:56:02;6.07;;;4.82;;
70683;SDS011;58263;48.146;11.440;2024-03-02T10:58:32;6.63;;;4.90;;
70683;SDS011;58263;48.146;11.440;2024-03-02T11:01:02;5.05;;;4.05;;
70683;SDS011;58263;48.146;11.440;2024-03-02T11:03:29;5.50;;;4.03;;
70683;SDS011;58263;48.146;11.440;2024-03-02T11:05:58;6.85;;;4.38;;
70683;SDS011;58263;48.146;11.440;2024-03-02T11:08:25;4.53;;;4.10;;
70683;SDS011;58263;48.146;11.440;2024-03-02T11:10:59;10.93;;;4.65;;
70683;SDS011;58263;48.146;11.440;2024-03-02T11:13:32;8.52;;;4.85;;
70683;SDS011;58263;48.146;11.440;2024-03-02T11:15:59;9.35;;;5.40;;
70683;SDS011;58263;48.146;11.440;2024-03-02T11:18:31;7.68;;;4.57;;
70683;SDS011;58263;48.146;11.440;2024-03-02T11:20:57;6.97;;;4.18;;
70683;SDS011;58263;48.146;11.440;2024-03-02T11:23:33;8.93;;;4.75;;
70683;SDS011;58263;48.146;11.440;2024-03-02T11:28:44;9.30;;;4.68;;
70683;SDS011;58263;48.146;11.440;2024-03-02T11:31:09;6.77;;;4.83;;
70683;SDS011;58263;48.146;11.440;2024-03-02T11:33:34;6.60;;;4.83;;
70683;SDS011;58263;48.146;11.440;2024-03-02T11:36:00;6.10;;;4.50;;
70683;SDS011;58263;48.146;11.440;2024-03-02T11:38:27;5.68;;;4.80;;
70683;SDS011;58263;48.146;11.440;2024-03-02T11:40:53;6.13;;;5.05;;
70683;SDS011;58263;48.146;11.440;2024-03-02T11:43:19;5.28;;;4.60;;
70683;SDS011;58263;48.146;11.440;2024-03-02T11:45:44;10.80;;;4.75;;
70683;SDS011;58263;48.146;11.440;2024-03-02T11:48:10;6.50;;;4.57;;
70683;SDS011;58263;48.146;11.440;2024-03-02T11:50:49;5.82;;;4.63;;
70683;SDS011;58263;48.146;11.440;2024-03-02T11:53:15;6.43;;;4.97;;
70683;SDS011;58263;48.146;11.440;2024-03-02T11:55:40;8.02;;;5.95;;
70683;SDS011;58263;48.146;11.440;2024-03-02T11:58:06;7.10;;;5.38;;
70683;SDS011;58263;48.146;11.440;2024-03-02T12:00:32;8.20;;;5.63;;
70683;SDS011;58263;48.146;11.440;2024-03-02T12:05:33;6.43;;;4.95;;
70683;SDS011;58263;48.146;11.440;2024-03-02T12:07:59;9.73;;;6.25;;
70683;SDS011;58263;48.146;11.440;2024-03-02T12:10:27;8.38;;;5.70;;
70683;SDS011;58263;48.146;11.440;2024-03-02T12:13:05;9.57;;;6.22;;
70683;SDS011;58263;48.146;11.440;2024-03-02T12:15:33;9.48;;;7.20;;
70683;SDS011;58263;48.146;11.440;2024-03-02T12:18:00;11.32;;;6.88;;
70683;SDS011;58263;48.146;11.440;2024-03-02T12:20:27;12.02;;;8.13;;
70683;SDS011;58263;48.146;11.440;2024-03-02T12:22:54;10.55;;;7.43;;
70683;SDS011;58263;48.146;11.440;2024-03-02T12:25:21;10.15;;;8.18;;
70683;SDS011;58263;48.146;11.440;2024-03-02T12:27:47;10.02;;;7.60;;
70683;SDS011;58263;48.146;11.440;2024-03-02T12:30:16;11.88;;;8.05;;
70683;SDS011;58263;48.146;11.440;2024-03-02T12:35:07;10.73;;;8.20;;
70683;SDS011;58263;48.146;11.440;2024-03-02T12:37:33;8.27;;;6.75;;
70683;SDS011;58263;48.146;11.440;2024-03-02T12:39:58;9.90;;;7.43;;
70683;SDS011;58263;48.146;11.440;2024-03-02T12:42:24;8.52;;;6.75;;
70683;SDS011;58263;48.146;11.440;2024-03-02T12:44:53;10.27;;;7.65;;
70683;SDS011;58263;48.146;11.440;2024-03-02T12:47:21;8.73;;;7.63;;
70683;SDS011;58263;48.146;11.440;2024-03-02T12:49:46;9.43;;;7.97;;
70683;SDS011;58263;48.146;11.440;2024-03-02T12:52:12;9.73;;;7.67;;
70683;SDS011;58263;48.146;11.440;2024-03-02T12:54:38;9.68;;;8.35;;
70683;SDS011;58263;48.146;11.440;2024-03-02T12:57:03;9.13;;;7.97;;
70683;SDS011;58263;48.146;11.440;2024-03-02T12:59:29;12.27;;;8.55;;
70683;SDS011;58263;48.146;11.440;2024-03-02T13:01:56;12.63;;;8.25;;
70683;SDS011;58263;48.146;11.440;2024-03-02T13:04:27;10.32;;;8.30;;
70683;SDS011;58263;48.146;11.440;2024-03-02T13:06:53;10.57;;;7.80;;
70683;SDS011;58263;48.146;11.440;2024-03-02T13:09:21;11.27;;;8.35;;
70683;SDS011;58263;48.146;11.440;2024-03-02T13:11:46;7.88;;;5.68;;
70683;SDS011;58263;48.146;11.440;2024-03-02T13:14:12;12.02;;;8.15;;
70683;SDS011;58263;48.146;11.440;2024-03-02T13:16:38;9.73;;;8.73;;
70683;SDS011;58263;48.146;11.440;2024-03-02T13:19:06;13.68;;;8.98;;
70683;SDS011;58263;48.146;11.440;2024-03-02T13:21:33;10.32;;;9.23;;
70683;SDS011;58263;48.146;11.440;2024-03-02T13:23:58;20.23;;;9.53;;
70683;SDS011;58263;48.146;11.440;2024-03-02T13:26:24;12.88;;;8.30;;
70683;SDS011;58263;48.146;11.440;2024-03-02T13:28:49;8.70;;;7.63;;
70683;SDS011;58263;48.146;11.440;2024-03-02T13:31:14;11.40;;;8.48;;
70683;SDS011;58263;48.146;11.440;2024-03-02T13:33:40;11.33;;;7.83;;
70683;SDS011;58263;48.146;11.440;2024-03-02T13:36:05;10.67;;;8.03;;
70683;SDS011;58263;48.146;11.440;2024-03-02T13:38:30;10.82;;;8.10;;
70683;SDS011;58263;48.146;11.440;2024-03-02T13:40:56;10.27;;;8.17;;
70683;SDS011;58263;48.146;11.440;2024-03-02T13:43:21;12.00;;;9.00;;
70683;SDS011;58263;48.146;11.440;2024-03-02T13:45:48;11.25;;;9.18;;
70683;SDS011;58263;48.146;11.440;2024-03-02T13:48:13;11.07;;;9.10;;
70683;SDS011;58263;48.146;11.440;2024-03-02T13:50:39;10.82;;;8.52;;
70683;SDS011;58263;48.146;11.440;2024-03-02T13:53:05;10.52;;;8.32;;
70683;SDS011;58263;48.146;11.440;2024-03-02T13:55:31;11.13;;;9.35;;
70683;SDS011;58263;48.146;11.440;2024-03-02T13:57:57;10.40;;;7.90;;
70683;SDS011;58263;48.146;11.440;2024-03-02T14:00:23;10.30;;;7.88;;
70683;SDS011;58263;48.146;11.440;2024-03-02T14:02:48;10.47;;;8.67;;
70683;SDS011;58263;48.146;11.440;2024-03-02T14:05:16;9.80;;;8.75;;
70683;SDS011;58263;48.146;11.440;2024-03-02T14:07:41;12.13;;;9.18;;
70683;SDS011;58263;48.146;11.440;2024-03-02T14:10:07;11.77;;;8.77;;
70683;SDS011;58263;48.146;11.440;2024-03-02T14:12:32;12.77;;;9.40;;
70683;SDS011;58263;48.146;11.440;2024-03-02T14:14:58;12.85;;;10.05;;
70683;SDS011;58263;48.146;11.440;2024-03-02T14:17:24;11.90;;;9.27;;
70683;SDS011;58263;48.146;11.440;2024-03-02T14:19:50;11.45;;;9.43;;
70683;SDS011;58263;48.146;11.440;2024-03-02T14:22:16;11.77;;;9.57;;
70683;SDS011;58263;48.146;11.440;2024-03-02T14:24:42;14.90;;;10.38;;
70683;SDS011;58263;48.146;11.440;2024-03-02T14:27:08;14.85;;;10.23;;
70683;SDS011;58263;48.146;11.440;2024-03-02T14:29:33;14.23;;;10.20;;